Latest Weather Observations for Derby

IDW60801

Issued at 2:32 pm WST Saturday 4 July 2015 (issued every 30 minutes, with the page automatically refreshed every 10 minutes)

About weather observations | Map of weather stations | Latest weather observations for WA | Other Formats
Station Details ID: 003032 Name: DERBY AERO Lat: -17.37 Lon: 123.66 Height: 6.2 m
Data from the previous 72 hours. | See also: Recent months at Derby
Date/Time
WST
Temp
°C
App
Temp
°C
Dew
Point
Rel
Hum
%
Delta-T
°C
Wind Press
QNH
hPa
Press
MSL
hPa
Rain
since 9 am
mm
Dir
 
Spd
km/h
Gust
km/h
Spd
kts
Gust
kts
04/02:30pm 30.8 27.8 6.0 21 13.2 SE 11 19 6 10 1013.5 1013.5 0.0
04/02:00pm 30.5 26.7 5.7 21 13.1 E 15 24 8 13 1013.8 1013.8 0.0
04/01:30pm 30.3 26.3 4.9 20 13.2 SSE 15 28 8 15 1014.1 1014.1 0.0
04/01:00pm 31.0 27.3 6.1 21 13.3 ESE 15 24 8 13 1014.6 1014.6 0.0
04/12:30pm 30.1 25.8 5.4 21 12.9 ESE 17 28 9 15 1015.1 1015.1 0.0
04/12:00pm 30.1 25.3 5.4 21 12.9 ESE 20 30 11 16 1015.7 1015.7 0.0
04/11:30am 29.9 24.3 5.2 21 12.9 ESE 24 33 13 18 1016.2 1016.2 0.0
04/11:00am 29.6 23.9 5.0 21 12.7 ESE 24 33 13 18 1016.5 1016.5 0.0
04/10:30am 29.3 23.3 5.4 22 12.5 ESE 26 35 14 19 1016.9 1016.9 0.0
04/10:00am 28.6 21.9 5.5 23 12.0 ESE 30 37 16 20 1017.2 1017.2 0.0
04/09:30am 27.3 20.2 5.6 25 11.2 ESE 32 43 17 23 1017.1 1017.1 0.0
04/09:00am 25.9 18.9 6.0 28 10.3 ESE 32 39 17 21 1017.0 1017.0 0.0
04/08:30am 24.9 19.7 5.7 29 9.8 ESE 22 28 12 15 1017.5 1017.5 0.0
04/08:00am 23.3 18.5 5.7 32 8.9 SE 20 26 11 14 1017.4 1017.4 0.0
04/07:30am 21.8 16.9 5.3 34 8.2 SSE 20 28 11 15 1017.2 1017.2 0.0
04/07:00am 20.5 16.5 4.9 36 7.6 SE 15 22 8 12 1016.8 1016.8 0.0
04/06:30am 20.0 16.1 5.3 38 7.2 SE 15 20 8 11 1016.8 1016.8 0.0
04/06:00am 20.2 15.9 5.1 37 7.4 SE 17 20 9 11 1016.3 1016.3 0.0
04/05:30am 20.7 16.0 5.1 36 7.7 SSE 19 24 10 13 1016.1 1016.1 0.0
04/05:00am 21.6 16.7 5.1 34 8.1 SE 20 30 11 16 1015.9 1015.9 0.0
04/04:30am 21.9 16.7 5.3 34 8.2 SE 22 33 12 18 1015.7 1015.7 0.0
04/04:00am 22.3 16.8 5.7 34 8.3 SE 24 37 13 20 1015.6 1015.6 0.0
04/03:30am 20.9 17.6 6.4 39 7.3 SSE 13 17 7 9 1015.5 1015.5 0.0
04/03:00am 21.5 18.2 6.6 38 7.6 SSE 13 17 7 9 1015.4 1015.4 0.0
04/02:30am 22.1 18.1 6.7 37 7.9 SE 17 24 9 13 1015.4 1015.4 0.0
04/02:00am 22.3 18.4 6.9 37 7.9 SE 17 20 9 11 1015.4 1015.4 0.0
04/01:30am 22.3 18.8 7.3 38 7.8 SE 15 20 8 11 1015.4 1015.4 0.0
04/01:00am 20.6 17.6 7.9 44 6.6 SSE 13 17 7 9 1015.5 1015.5 0.0
04/12:30am 20.2 17.4 8.5 47 6.1 SSE 13 15 7 8 1015.6 1015.6 0.0
04/12:00am 20.3 17.6 8.9 48 6.0 SE 13 15 7 8 1015.6 1015.6 0.0
 
Date/Time
WST
Temp
°C
App
Temp
°C
Dew
Point
Rel
Hum
%
Delta-T
°C
Wind Press
QNH
hPa
Press
MSL
hPa
Rain
since 9 am
mm
Dir
 
Spd
km/h
Gust
km/h
Spd
kts
Gust
kts
03/11:30pm 19.6 16.9 7.4 45 6.2 SSE 11 13 6 7 1015.6 1015.6 0.0
03/11:00pm 21.6 19.0 9.2 45 6.6 SSE 13 15 7 8 1015.6 1015.6 0.0
03/10:30pm 21.9 19.7 9.4 45 6.7 SSE 11 15 6 8 1015.7 1015.7 0.0
03/10:00pm 21.4 19.1 9.0 45 6.6 SSE 11 13 6 7 1015.7 1015.7 0.0
03/09:30pm 21.5 20.0 9.1 45 6.6 SSE 7 9 4 5 1015.7 1015.7 0.0
03/09:00pm 22.8 20.7 9.9 44 7.0 SSE 11 13 6 7 1015.7 1015.7 0.0
03/08:30pm 23.3 21.6 10.0 43 7.3 SSE 9 11 5 6 1015.7 1015.7 0.0
03/08:00pm 23.7 22.2 10.4 43 7.3 SE 9 11 5 6 1015.4 1015.4 0.0
03/07:30pm 25.2 23.6 10.3 39 8.3 SSE 9 11 5 6 1015.2 1015.2 0.0
03/07:00pm 25.9 24.2 9.7 36 8.9 SSE 9 13 5 7 1014.9 1014.9 0.0
03/06:30pm 26.1 25.3 11.1 39 8.5 SSE 6 9 3 5 1014.5 1014.5 0.0
03/06:00pm 26.2 25.2 10.4 37 8.8 WSW 6 9 3 5 1014.2 1014.2 0.0
03/05:30pm 27.9 26.0 10.6 34 9.8 WSW 11 13 6 7 1014.0 1014.0 0.0
03/05:00pm 29.8 28.0 10.9 31 10.8 W 11 15 6 8 1013.7 1013.7 0.0
03/04:30pm 30.1 27.8 11.6 32 10.7 WNW 15 19 8 10 1013.6 1013.6 0.0
03/04:00pm 30.5 27.3 11.9 31 10.9 WNW 20 26 11 14 1013.5 1013.5 0.0
03/03:30pm 30.5 26.0 11.5 31 11.0 NW 26 30 14 16 1013.5 1013.5 0.0
03/03:00pm 32.2 29.7 9.7 25 12.8 E 13 19 7 10 1013.5 1013.5 0.0
03/02:30pm 32.8 31.8 10.2 25 13.0 E 6 11 3 6 1013.6 1013.6 0.0
03/02:00pm 32.9 30.6 10.3 25 13.0 SSE 13 24 7 13 1013.9 1013.9 0.0
03/01:30pm 31.5 28.2 9.7 26 12.3 ESE 17 24 9 13 1014.1 1014.1 0.0
03/01:00pm 32.5 29.1 10.5 26 12.7 SE 19 28 10 15 1014.3 1014.3 0.0
03/12:30pm 31.6 27.8 9.8 26 12.4 ESE 20 32 11 17 1014.6 1014.6 0.0
03/12:00pm 31.3 27.8 10.1 27 12.1 E 19 28 10 15 1015.1 1015.1 0.0
03/11:30am 31.1 27.3 9.9 27 12.0 E 20 26 11 14 1015.7 1015.7 0.0
03/11:00am 30.7 26.5 9.6 27 11.9 E 22 35 12 19 1016.1 1016.1 0.0
03/10:30am 29.8 25.3 9.9 29 11.2 E 24 35 13 19 1016.5 1016.5 0.0
03/10:00am 29.8 25.3 9.9 29 11.2 E 24 37 13 20 1016.8 1016.8 0.0
03/09:30am 28.7 24.9 9.9 31 10.5 E 20 26 11 14 1017.2 1017.2 0.0
03/09:00am 27.3 23.4 9.6 33 9.8 ESE 20 26 11 14 1017.5 1017.5 0.0
03/08:30am 25.4 21.7 9.3 36 8.8 ESE 19 24 10 13 1017.6 1017.6 0.0
03/08:00am 23.6 19.9 8.1 37 8.2 SE 17 20 9 11 1017.6 1017.6 0.0
03/07:30am 22.0 18.3 7.8 40 7.4 SSE 17 20 9 11 1017.3 1017.3 0.0
03/07:00am 19.1 16.0 7.2 46 6.0 SSE 13 17 7 9 1017.3 1017.3 0.0
03/06:30am 17.2 14.0 7.0 51 5.1 SSE 13 17 7 9 1017.0 1017.0 0.0
03/06:00am 17.5 14.0 7.3 51 5.1 SSE 15 17 8 9 1016.7 1016.7 0.0
03/05:30am 18.0 13.7 7.1 49 5.5 SSE 19 22 10 12 1016.3 1016.3 0.0
03/05:00am 17.9 13.7 7.6 51 5.2 S 19 22 10 12 1016.0 1016.0 0.0
03/04:30am 17.6 14.1 7.4 51 5.1 S 15 17 8 9 1016.2 1016.2 0.0
03/04:00am 17.4 13.8 6.6 49 5.3 S 15 17 8 9 1016.2 1016.2 0.0
03/03:30am 18.4 14.9 7.2 48 5.6 SSE 15 17 8 9 1016.3 1016.3 0.0
03/03:00am 18.2 14.8 7.6 50 5.4 S 15 17 8 9 1016.4 1016.4 0.0
03/02:30am 18.6 15.7 8.3 51 5.3 SSE 13 15 7 8 1016.6 1016.6 0.0
03/02:00am 17.6 14.6 7.6 52 5.0 S 13 13 7 7 1016.8 1016.8 0.0
03/01:30am 17.4 15.4 7.2 51 5.1 SSW 7 9 4 5 1017.1 1017.1 0.0
03/01:00am 18.4 16.7 8.4 52 5.1 S 7 9 4 5 1017.3 1017.3 0.0
03/12:30am 18.4 15.9 8.4 52 5.2 SSW 11 13 6 7 1017.4 1017.4 0.0
03/12:00am 18.0 15.5 8.0 52 5.1 SSW 11 15 6 8 1017.6 1017.6 0.0
 
Date/Time
WST
Temp
°C
App
Temp
°C
Dew
Point
Rel
Hum
%
Delta-T
°C
Wind Press
QNH
hPa
Press
MSL
hPa
Rain
since 9 am
mm
Dir
 
Spd
km/h
Gust
km/h
Spd
kts
Gust
kts
02/11:30pm 18.0 17.1 7.7 51 5.2 SW 2 6 1 3 1017.6 1017.6 0.0
02/11:00pm 18.5 16.8 8.5 52 5.2 SSW 7 11 4 6 1017.6 1017.6 0.0
02/10:30pm 18.8 18.6 9.0 53 5.1 CALM 0 0 0 0 1017.6 1017.6 0.0
02/10:00pm 18.5 17.9 9.0 54 4.9 SE 2 6 1 3 1017.8 1017.8 0.0
02/09:30pm 19.8 18.9 9.4 51 5.5 SE 4 6 2 3 1017.8 1017.8 0.0
02/09:00pm 20.6 20.5 9.5 49 5.9 CALM 0 0 0 0 1017.7 1017.7 0.0
02/08:30pm 20.5 20.3 9.1 48 6.0 CALM 0 4 0 2 1017.7 1017.7 0.0
02/08:00pm 20.4 19.0 8.7 47 6.1 SSW 6 7 3 4 1017.3 1017.3 0.0
02/07:30pm 22.7 21.4 9.8 44 7.0 SSW 7 9 4 5 1017.0 1017.0 0.0
02/07:00pm 23.4 22.5 9.4 41 7.6 WSW 4 6 2 3 1016.6 1016.6 0.0
02/06:30pm 24.6 23.2 9.7 39 8.2 W 7 7 4 4 1016.2 1016.2 0.0
02/06:00pm 24.9 22.9 8.8 36 8.7 W 9 11 5 6 1015.9 1015.9 0.0
02/05:30pm 26.9 24.3 9.3 33 9.7 W 13 15 7 8 1015.6 1015.6 0.0
02/05:00pm 29.3 26.2 8.9 28 11.3 W 15 19 8 10 1015.4 1015.4 0.0
02/04:30pm 30.2 26.4 9.1 27 11.8 WNW 19 20 10 11 1015.3 1015.3 0.0
02/04:00pm 30.9 27.3 9.7 27 12.0 WNW 19 22 10 12 1015.2 1015.2 0.0
02/03:30pm 31.2 27.8 10.5 28 11.9 WNW 19 22 10 12 1015.1 1015.1 0.0
02/03:00pm 31.0 27.2 9.8 27 12.0 NW 20 26 11 14 1015.2 1015.2 0.0
02/02:30pm 31.6 27.0 9.8 26 12.4 NW 24 30 13 16 1015.2 1015.2 0.0
02/02:00pm 32.1 30.0 8.4 23 13.2 E 9 17 5 9 1015.6 1015.6 0.0
02/01:30pm 31.2 29.5 8.2 24 12.7 SE 7 17 4 9 1015.9 1015.9 0.0
02/01:00pm 32.4 29.1 8.0 22 13.5 NE 15 26 8 14 1016.2 1016.2 0.0
02/12:30pm 31.9 28.6 8.2 23 13.1 ESE 15 24 8 13 1016.7 1016.7 0.0
02/12:00pm 31.3 27.2 7.7 23 12.9 E 19 28 10 15 1017.2 1017.2 0.0
02/11:30am 31.3 27.1 8.3 24 12.7 E 20 33 11 18 1017.8 1017.8 0.0
02/11:00am 30.7 26.3 9.0 26 12.1 E 22 32 12 17 1018.3 1018.3 0.0
02/10:30am 30.3 25.7 9.8 28 11.6 E 24 35 13 19 1018.7 1018.7 0.0
02/10:00am 29.2 23.9 9.8 30 10.9 E 28 39 15 21 1019.0 1019.0 0.0
02/09:30am 28.8 24.9 9.5 30 10.8 ENE 20 33 11 18 1019.4 1019.4 0.0
02/09:00am 27.6 22.8 9.0 31 10.2 E 24 33 13 18 1019.5 1019.5 0.0
02/08:30am 26.1 21.2 8.6 33 9.5 ESE 24 32 13 17 1019.5 1019.5 0.0
02/08:00am 24.8 20.6 8.3 35 8.8 ESE 20 30 11 16 1019.6 1019.6 0.0
02/07:30am 21.9 20.0 7.7 40 7.4 SSE 7 11 4 6 1019.3 1019.3 0.0
02/07:00am 20.9 17.5 7.5 42 6.9 SE 15 17 8 9 1018.9 1018.9 0.0
02/06:30am 19.4 16.3 7.2 45 6.2 SE 13 17 7 9 1018.6 1018.6 0.0
02/06:00am 18.8 15.6 6.9 46 6.0 SSE 13 15 7 8 1018.4 1018.4 0.0
02/05:30am 18.5 15.3 6.7 46 5.9 SSE 13 17 7 9 1018.1 1018.1 0.0
02/05:00am 18.5 15.2 6.4 45 6.0 SSE 13 17 7 9 1017.9 1017.9 0.0
02/04:30am 18.9 15.7 7.0 46 6.0 SSE 13 17 7 9 1017.9 1017.9 0.0
02/04:00am 18.6 15.3 6.4 45 6.0 SSE 13 17 7 9 1018.0 1018.0 0.0
02/03:30am 18.0 14.7 6.2 46 5.8 SSE 13 19 7 10 1017.9 1017.9 0.0
02/03:00am 17.9 14.4 5.5 44 6.0 SSE 13 17 7 9 1017.8 1017.8 0.0
02/02:30am 18.2 15.2 5.8 44 6.1 SSE 11 15 6 8 1017.9 1017.9 0.0
02/02:00am 17.7 15.3 5.3 44 6.0 SSE 7 11 4 6 1018.1 1018.1 0.0
02/01:30am 17.2 14.3 4.9 44 5.9 SSE 9 11 5 6 1018.3 1018.3 0.0
02/01:00am 18.7 15.7 6.2 44 6.2 SE 11 13 6 7 1018.6 1018.6 0.0
02/12:30am 17.7 14.5 5.3 44 6.0 SE 11 17 6 9 1018.6 1018.6 0.0
02/12:00am 17.6 14.5 5.5 45 5.8 SSE 11 13 6 7 1018.6 1018.6 0.0
 
Date/Time
WST
Temp
°C
App
Temp
°C
Dew
Point
Rel
Hum
%
Delta-T
°C
Wind Press
QNH
hPa
Press
MSL
hPa
Rain
since 9 am
mm
Dir
 
Spd
km/h
Gust
km/h
Spd
kts
Gust
kts
01/11:30pm 16.5 15.6 6.1 50 5.1 CALM 0 0 0 0 1018.6 1018.6 0.0
01/11:00pm 17.5 16.2 6.1 47 5.6 SSW 2 7 1 4 1018.7 1018.7 0.0
01/10:30pm 17.5 16.6 6.1 47 5.6 CALM 0 0 0 0 1018.8 1018.8 0.0
01/10:00pm 18.8 16.7 6.0 43 6.3 SSW 6 7 3 4 1018.9 1018.9 0.0
01/09:30pm 18.2 17.4 6.4 46 5.8 CALM 0 7 0 4 1018.8 1018.8 0.0
01/09:00pm 18.8 16.8 6.3 44 6.2 SSE 6 11 3 6 1018.8 1018.8 0.0
01/08:30pm 19.7 17.8 6.8 43 6.5 SE 6 7 3 4 1018.6 1018.6 0.0
01/08:00pm 20.7 19.1 8.0 44 6.6 SE 6 7 3 4 1018.4 1018.4 0.0
01/07:30pm 20.7 20.0 7.0 41 7.0 CALM 0 2 0 1 1018.0 1018.0 0.0
01/07:00pm 21.3 20.7 7.2 40 7.2 CALM 0 0 0 0 1017.6 1017.6 0.0
01/06:30pm 23.9 22.6 7.5 35 8.6 W 4 7 2 4 1017.2 1017.2 0.0
01/06:00pm 24.5 24.2 8.5 36 8.6 CALM 0 6 0 3 1016.8 1016.8 0.0
01/05:30pm 25.5 23.5 7.1 31 9.7 NW 7 9 4 5 1016.5 1016.5 0.0
01/05:00pm 28.4 24.9 5.3 23 11.9 WNW 13 17 7 9 1016.4 1016.4 0.0
01/04:30pm 30.3 25.9 4.9 20 13.2 W 17 19 9 10 1016.2 1016.2 0.0
01/04:00pm 30.8 26.0 4.5 19 13.6 WNW 19 20 10 11 1016.1 1016.1 0.0
01/03:30pm 30.9 25.1 4.6 19 13.7 W 24 28 13 15 1015.9 1015.9 0.0
01/03:00pm 31.0 26.6 4.7 19 13.7 WNW 17 24 9 13 1016.1 1016.1 0.0

Other Formats:

Comma delimited format used in spreadsheet applications
http://www.bom.gov.au/fwo/IDW60801/IDW60801.95205.axf

JavaScript Object Notation format (JSON) in row-major order
http://www.bom.gov.au/fwo/IDW60801/IDW60801.95205.json